Thomson Spirit — 9HA2336 — position and weather

sailwx.info

Track history (hours):
 
Tides and Currents Weather Stations Pressure Air Temp Water Temp Dewpoint Dewpoint Depression Visibility Wind Speed Wind Dir Waves Ship Positions

Thomson Spirit

Last reported at 2015-Jul-28 17:26 UTC. Time now 2015-Jul-28 19:43 UTC.
Position N 33°06' E 032°42'.

Length 214 m; draft 7.8 m.

Type: Passenger vessel. MMSI: 248368000.

Date/timePositionNaut miles runAvg speedWind from/ knotsBaromVisibWave heightAir tempDewpointWater temp
2015-Jul-28 17:26N 33°06' E 032°42'1415.5
2015-Jul-28 16:33N 33°15' E 032°31'1615.5
2015-Jul-28 15:33N 33°27' E 032°18'1515.5
2015-Jul-28 14:33N 33°38' E 032°05'1515.5
2015-Jul-28 13:33N 33°49' E 031°52'1515.5
2015-Jul-28 12:33N 33°60' E 031°38'1515.3
2015-Jul-28 11:33N 34°11' E 031°26'1515.0
2015-Jul-28 10:33N 34°21' E 031°13'222 6.3
2015-Jul-26 23:33N 36°30' E 027°32'1311.8
2015-Jul-26 22:29N 36°31' E 027°16'1212.5
2015-Jul-26 21:33N 36°29' E 027°02'1212.4
2015-Jul-26 20:33N 36°28' E 026°46'1212.2
2015-Jul-26 19:33N 36°29' E 026°31'1212.1
2015-Jul-26 18:33N 36°29' E 026°16'1212.0
2015-Jul-26 17:33N 36°30' E 026°02'1212.4
2015-Jul-26 16:33N 36°30' E 025°46'1212.3
2015-Jul-26 15:33N 36°30' E 025°31'8 7.6
2015-Jul-26 14:33N 36°26' E 025°23'2 2.2
2015-Jul-26 13:32N 36°25' E 025°25'0 0.0
2015-Jul-26 12:32N 36°25' E 025°25'0 0.0
2015-Jul-26 11:33N 36°25' E 025°25'0 0.0
2015-Jul-26 10:33N 36°25' E 025°25'0 0.0
2015-Jul-26 09:33N 36°25' E 025°25'0 0.0
2015-Jul-26 08:33N 36°25' E 025°25'0 0.0
2015-Jul-26 07:33N 36°25' E 025°25'0 0.0
2015-Jul-26 06:33N 36°25' E 025°25'0 0.0
2015-Jul-26 05:33N 36°25' E 025°25'0 0.0
2015-Jul-26 04:33N 36°25' E 025°25'0 0.0
2015-Jul-26 03:33N 36°25' E 025°25'6 5.7
2015-Jul-26 02:33N 36°29' E 025°20'1010.1
2015-Jul-26 01:33N 36°32' E 025°08'2610.3
2015-Jul-25 23:05N 36°46' E 024°43'611.0
2015-Jul-25 22:30N 36°52' E 024°38'1010.7
2015-Jul-25 21:32N 36°59' E 024°29'2612.0
2015-Jul-25 19:20N 37°20' E 024°09'1112.5
2015-Jul-25 18:29N 37°29' E 024°01'1213.2
2015-Jul-25 17:33N 37°36' E 023°48'1211.8
2015-Jul-25 16:33N 37°45' E 023°39'1110.7
2015-Jul-25 15:33N 37°56' E 023°37'1 0.6
2015-Jul-25 14:33N 37°56' E 023°37'0 0.0
2015-Jul-25 13:33N 37°56' E 023°37'0 0.0
2015-Jul-25 12:33N 37°56' E 023°37'0 0.0
2015-Jul-25 11:33N 37°56' E 023°37'0 0.0
2015-Jul-25 10:33N 37°56' E 023°37'0 0.0
2015-Jul-25 09:33N 37°56' E 023°37'0 0.0
2015-Jul-25 08:33N 37°56' E 023°37'0 0.0
2015-Jul-25 07:33N 37°56' E 023°37'0 0.0
2015-Jul-25 06:33N 37°56' E 023°37'0 0.0
2015-Jul-25 05:33N 37°56' E 023°37'0 0.0
2015-Jul-25 04:33N 37°56' E 023°37'0 0.0
2015-Jul-25 03:33N 37°56' E 023°37'2 2.5
2015-Jul-25 02:33N 37°54' E 023°37'1010.1
2015-Jul-25 01:33N 37°44' E 023°43'1414.1
2015-Jul-25 00:33N 37°36' E 023°57'3715.4
2015-Jul-24 22:08N 37°32' E 024°44'1015.8
2015-Jul-24 21:30N 37°32' E 024°56'1415.0
2015-Jul-24 20:33N 37°31' E 025°14'1615.6
2015-Jul-24 19:33N 37°35' E 025°33'1515.3
2015-Jul-24 18:33N 37°39' E 025°51'1615.6
2015-Jul-24 17:33N 37°43' E 026°11'1914.4
2015-Jul-24 16:12N 37°49' E 026°34'914.3
2015-Jul-24 15:33N 37°51' E 026°46'205 4.3
2015-Jul-22 16:13N 40°54' E 028°44'913.7
2015-Jul-22 15:32N 40°57' E 028°56'252 6.8
2015-Jul-21 02:32N 36°59' E 027°12'2410.9
2015-Jul-21 00:21N 36°38' E 027°26'8 0.3
2015-Jul-19 21:31N 36°31' E 027°30'1111.2
2015-Jul-19 20:33N 36°32' E 027°16'1110.7
2015-Jul-19 19:33N 36°33' E 027°03'1411.0
2015-Jul-19 18:17N 36°43' E 026°52'811.1
2015-Jul-19 17:33N 36°51' E 026°48'1110.8
2015-Jul-19 16:33N 37°01' E 026°43'1111.0
2015-Jul-19 15:33N 37°11' E 026°38'  
Track history (hours):
 
Tides and Currents Weather Stations Pressure Air Temp Water Temp Dewpoint Dewpoint Depression Visibility Wind Speed Wind Dir Waves Ship Positions

Thomson Spirit

Last reported at 2015-Jul-28 17:26 UTC. Time now 2015-Jul-28 19:43 UTC.
Position N 33°06' E 032°42'.

Length 214 m; draft 7.8 m.

Type: Passenger vessel. MMSI: 248368000.

Date/timePositionNaut miles runAvg speedWind from/ knotsBaromVisibWave heightAir tempDewpointWater temp
2015-Jul-28 17:26N 33°06' E 032°42'1415.5
2015-Jul-28 16:33N 33°15' E 032°31'1615.5
2015-Jul-28 15:33N 33°27' E 032°18'1515.5
2015-Jul-28 14:33N 33°38' E 032°05'1515.5
2015-Jul-28 13:33N 33°49' E 031°52'1515.5
2015-Jul-28 12:33N 33°60' E 031°38'1515.3
2015-Jul-28 11:33N 34°11' E 031°26'1515.0
2015-Jul-28 10:33N 34°21' E 031°13'222 6.3
2015-Jul-26 23:33N 36°30' E 027°32'1311.8
2015-Jul-26 22:29N 36°31' E 027°16'1212.5
2015-Jul-26 21:33N 36°29' E 027°02'1212.4
2015-Jul-26 20:33N 36°28' E 026°46'1212.2
2015-Jul-26 19:33N 36°29' E 026°31'1212.1
2015-Jul-26 18:33N 36°29' E 026°16'1212.0
2015-Jul-26 17:33N 36°30' E 026°02'1212.4
2015-Jul-26 16:33N 36°30' E 025°46'1212.3
2015-Jul-26 15:33N 36°30' E 025°31'8 7.6
2015-Jul-26 14:33N 36°26' E 025°23'2 2.2
2015-Jul-26 13:32N 36°25' E 025°25'0 0.0
2015-Jul-26 12:32N 36°25' E 025°25'0 0.0
2015-Jul-26 11:33N 36°25' E 025°25'0 0.0
2015-Jul-26 10:33N 36°25' E 025°25'0 0.0
2015-Jul-26 09:33N 36°25' E 025°25'0 0.0
2015-Jul-26 08:33N 36°25' E 025°25'0 0.0
2015-Jul-26 07:33N 36°25' E 025°25'0 0.0
2015-Jul-26 06:33N 36°25' E 025°25'0 0.0
2015-Jul-26 05:33N 36°25' E 025°25'0 0.0
2015-Jul-26 04:33N 36°25' E 025°25'0 0.0
2015-Jul-26 03:33N 36°25' E 025°25'6 5.7
2015-Jul-26 02:33N 36°29' E 025°20'1010.1
2015-Jul-26 01:33N 36°32' E 025°08'2610.3
2015-Jul-25 23:05N 36°46' E 024°43'611.0
2015-Jul-25 22:30N 36°52' E 024°38'1010.7
2015-Jul-25 21:32N 36°59' E 024°29'2612.0
2015-Jul-25 19:20N 37°20' E 024°09'1112.5
2015-Jul-25 18:29N 37°29' E 024°01'1213.2
2015-Jul-25 17:33N 37°36' E 023°48'1211.8
2015-Jul-25 16:33N 37°45' E 023°39'1110.7
2015-Jul-25 15:33N 37°56' E 023°37'1 0.6
2015-Jul-25 14:33N 37°56' E 023°37'0 0.0
2015-Jul-25 13:33N 37°56' E 023°37'0 0.0
2015-Jul-25 12:33N 37°56' E 023°37'0 0.0
2015-Jul-25 11:33N 37°56' E 023°37'0 0.0
2015-Jul-25 10:33N 37°56' E 023°37'0 0.0
2015-Jul-25 09:33N 37°56' E 023°37'0 0.0
2015-Jul-25 08:33N 37°56' E 023°37'0 0.0
2015-Jul-25 07:33N 37°56' E 023°37'0 0.0
2015-Jul-25 06:33N 37°56' E 023°37'0 0.0
2015-Jul-25 05:33N 37°56' E 023°37'0 0.0
2015-Jul-25 04:33N 37°56' E 023°37'0 0.0
2015-Jul-25 03:33N 37°56' E 023°37'2 2.5
2015-Jul-25 02:33N 37°54' E 023°37'1010.1
2015-Jul-25 01:33N 37°44' E 023°43'1414.1
2015-Jul-25 00:33N 37°36' E 023°57'3715.4
2015-Jul-24 22:08N 37°32' E 024°44'1015.8
2015-Jul-24 21:30N 37°32' E 024°56'1415.0
2015-Jul-24 20:33N 37°31' E 025°14'1615.6
2015-Jul-24 19:33N 37°35' E 025°33'1515.3
2015-Jul-24 18:33N 37°39' E 025°51'1615.6
2015-Jul-24 17:33N 37°43' E 026°11'1914.4
2015-Jul-24 16:12N 37°49' E 026°34'914.3
2015-Jul-24 15:33N 37°51' E 026°46'205 4.3
2015-Jul-22 16:13N 40°54' E 028°44'913.7
2015-Jul-22 15:32N 40°57' E 028°56'252 6.8
2015-Jul-21 02:32N 36°59' E 027°12'2410.9
2015-Jul-21 00:21N 36°38' E 027°26'8 0.3
2015-Jul-19 21:31N 36°31' E 027°30'1111.2
2015-Jul-19 20:33N 36°32' E 027°16'1110.7
2015-Jul-19 19:33N 36°33' E 027°03'1411.0
2015-Jul-19 18:17N 36°43' E 026°52'811.1
2015-Jul-19 17:33N 36°51' E 026°48'1110.8
2015-Jul-19 16:33N 37°01' E 026°43'1111.0
2015-Jul-19 15:33N 37°11' E 026°38'  

Dump ship's entire track history